バンクーバー の空港の天気 - METARとTAF

バンクーバー国際空港 ( CYVR / YVR ) - カナダ ブリティッシュコロンビア州バンクーバー
飛行場実況気象(Metar)
観測時間10/19 11:00 PDT (10/19 18:00 UTC)
風向・風速南南東 2m/s
視程10km以上
天気現象
全天の8割程度の雲 雲底高度 7620m
気温13℃
湿度82%
気圧1025.9hPa
METARCYVR 191800Z 16003KT 080V210 20SM BKN250 13/10 A3029 RMK CS6 CONTRAILS HZ VIS N 30SM SLP259
過去の天気等 Google飛行場航空写真 Wunderground天気予報

過去48時間のMETAR

飛行場予報(TAF)
発表時間: 10/19 10:38 PDT (10/19 17:38 UTC)
予報対象時間: 19日11時 PDT ~ 20日17時 PDT
風向・風速不定 2m/s
視程10km以上
全天の4割程度の雲 雲底高度 7620m
19日11時 PDT ~ 19日13時 PDT に徐々に
風向・風速西 3m/s
20日2時 PDT から
風向・風速不定 2m/s
視程10km以上
少しの雲 雲底高度 7620m
20日2時 PDT から 確率 30% で
視程800m
天気現象
全天の8割程度の雲 雲底高度 60m
20日11時 PDT ~ 20日13時 PDT に徐々に
風向・風速西 4m/s
TAF CYVR 191738Z 1918/2024 VRB03KT P6SM SCT250
BECMG 1918/1920 26005KT
FM200900 VRB03KT P6SM FEW250
PROB30 2009/2017 1/2SM FG BKN002
BECMG 2018/2020 28008KT RMK NXT FCST BY 192100Z